Map

Track Data

SID SEASON NUMBER BASIN SUBBASIN NAME ISO_TIME NATURE LAT LON WMO_WIND WMO_PRES WMO_AGENCY TRACK_TYPE DIST2LAND LANDFALL IFLAG USA_AGENCY USA_ATCF_ID USA_LAT USA_LON USA_RECORD USA_STATUS USA_WIND USA_PRES USA_SSHS USA_R34_NE USA_R34_SE USA_R34_SW USA_R34_NW USA_R50_NE USA_R50_SE USA_R50_SW USA_R50_NW USA_R64_NE USA_R64_SE USA_R64_SW USA_R64_NW USA_POCI USA_ROCI USA_RMW USA_EYE TOKYO_LAT TOKYO_LON TOKYO_GRADE TOKYO_WIND TOKYO_PRES TOKYO_R50_DIR TOKYO_R50_LONG TOKYO_R50_SHORT TOKYO_R30_DIR TOKYO_R30_LONG TOKYO_R30_SHORT TOKYO_LAND CMA_LAT CMA_LON CMA_CAT CMA_WIND CMA_PRES HKO_LAT HKO_LON HKO_CAT HKO_WIND HKO_PRES NEWDELHI_LAT NEWDELHI_LON NEWDELHI_GRADE NEWDELHI_WIND NEWDELHI_PRES NEWDELHI_CI NEWDELHI_DP NEWDELHI_POCI REUNION_LAT REUNION_LON REUNION_TYPE REUNION_WIND REUNION_PRES REUNION_TNUM REUNION_CI REUNION_RMW REUNION_R34_NE REUNION_R34_SE REUNION_R34_SW REUNION_R34_NW REUNION_R50_NE REUNION_R50_SE REUNION_R50_SW REUNION_R50_NW REUNION_R64_NE REUNION_R64_SE REUNION_R64_SW REUNION_R64_NW BOM_LAT BOM_LON BOM_TYPE BOM_WIND BOM_PRES BOM_TNUM BOM_CI BOM_RMW BOM_R34_NE BOM_R34_SE BOM_R34_SW BOM_R34_NW BOM_R50_NE BOM_R50_SE BOM_R50_SW BOM_R50_NW BOM_R64_NE BOM_R64_SE BOM_R64_SW BOM_R64_NW BOM_ROCI BOM_POCI BOM_EYE BOM_POS_METHOD BOM_PRES_METHOD NADI_LAT NADI_LON NADI_CAT NADI_WIND NADI_PRES WELLINGTON_LAT WELLINGTON_LON WELLINGTON_WIND WELLINGTON_PRES DS824_LAT DS824_LON DS824_STAGE DS824_WIND DS824_PRES TD9636_LAT TD9636_LON TD9636_STAGE TD9636_WIND TD9636_PRES TD9635_LAT TD9635_LON TD9635_WIND TD9635_PRES TD9635_ROCI NEUMANN_LAT NEUMANN_LON NEUMANN_CLASS NEUMANN_WIND NEUMANN_PRES MLC_LAT MLC_LON MLC_CLASS MLC_WIND MLC_PRES USA_GUST BOM_GUST BOM_GUST_PER REUNION_GUST REUNION_GUST_PER USA_SEAHGT USA_SEARAD_NE USA_SEARAD_SE USA_SEARAD_SW USA_SEARAD_NW STORM_SPEED STORM_DIR
1999343S09095 2000 102 SI WA ILSA 1999-12-08 22:00:00 NR -9.00000 95.0000 25 1002 bom main 924 914 ______O_______ -1 -9.00000 95.0000 20 25 1002 2.00000 161 3 5 5 98
1999343S09095 2000 102 SI WA ILSA 1999-12-09 00:00:00 NR -9.02366 95.1764 main 914 904 ______P_______ -1 -9.02366 95.1764 20 5 98
1999343S09095 2000 102 SI WA ILSA 1999-12-09 03:00:00 NR -9.05840 95.4417 main 914 900 ______P_______ -1 -9.05840 95.4417 20 5 97
1999343S09095 2000 102 SI WA ILSA 1999-12-09 06:00:00 NR -9.09142 95.7087 main 900 887 ______P_______ -1 -9.09142 95.7087 20 5 97
1999343S09095 2000 102 SI WA ILSA 1999-12-09 09:00:00 NR -9.12179 95.9783 main 887 878 ______P_______ -1 -9.12179 95.9783 20 5 96
1999343S09095 2000 102 SI WA ILSA 1999-12-09 12:00:00 NR -9.14857 96.2515 main 874 866 ______P_______ -1 -9.14857 96.2515 20 5 95
1999343S09095 2000 102 SI WA ILSA 1999-12-09 15:00:00 NR -9.17084 96.5291 main 866 842 ______P_______ -1 -9.17084 96.5291 20 6 94
1999343S09095 2000 102 SI WA ILSA 1999-12-09 18:00:00 NR -9.18766 96.8123 main 842 818 ______P_______ -1 -9.18766 96.8123 20 6 93
1999343S09095 2000 102 SI WA ILSA 1999-12-09 21:00:00 NR -9.19810 97.1019 main 818 810 ______P_______ -1 -9.19810 97.1019 20 6 92
1999343S09095 2000 102 SI WA ILSA 1999-12-09 22:00:00 NR -9.20000 97.2000 25 1002 bom main 810 803 ______O_______ -1 -9.20000 97.2000 20 25 1002 2.00000 161 3 5 6 104
1999343S09095 2000 102 SI WA ILSA 1999-12-10 00:00:00 TS -9.27013 97.3990 main 803 788 O_____P_____O_ jtwc_sh SH012000 -9.40000 97.4000 20 -1 -9.20520 97.3986 20 25 1001 161 -9.40000 97.4000 TC 20 6 111
1999343S09095 2000 102 SI WA ILSA 1999-12-10 03:00:00 TS -9.38047 97.6835 main 790 783 P_____P_____P_ SH012000 -9.50257 97.6674 20 -1 -9.25836 97.6996 20 25 1000 161 -9.50257 97.6674 TC 20 6 115
1999343S09095 2000 102 SI WA ILSA 1999-12-10 04:00:00 TS -9.44152 97.7703 25 1000 bom main 783 783 P_____O_____P_ SH012000 -9.53586 97.7506 20 -1 -9.30000 97.8000 20 25 1000 2.00000 161 3 5 -9.53586 97.7506 TC 20 6 124
1999343S09095 2000 102 SI WA ILSA 1999-12-10 06:00:00 TS -9.54864 97.9333 main 784 779 O_____P_____O_ jtwc_sh SH012000 -9.60000 97.9000 20 -1 -9.44590 97.9999 20 26 999 161 -9.60000 97.9000 TC 20 6 124
1999343S09095 2000 102 SI WA ILSA 1999-12-10 09:00:00 TS -9.70081 98.1567 main 780 780 P_____P_____P_ SH012000 -9.69243 98.0851 22 -1 -9.71758 98.3000 20 29 997 161 -9.69243 98.0851 TC 22 5 124
1999343S09095 2000 102 SI WA ILSA 1999-12-10 10:00:00 TS -9.75024 98.2323 30 997 bom main 788 774 P_____O_____P_ SH012000 -9.72536 98.1485 23 -1 -9.80000 98.4000 20 30 997 2.50000 161 3 5 -9.72536 98.1485 TC 23 6 119
1999343S09095 2000 102 SI WA ILSA 1999-12-10 12:00:00 TS -9.83678 98.4000 main 774 762 O_____P_____O_ jtwc_sh SH012000 -9.80000 98.3000 25 -1 -9.91035 98.6001 20 30 997 161 -9.80000 98.3000 TC 25 6 115
1999343S09095 2000 102 SI WA ILSA 1999-12-10 15:00:00 TS -9.97320 98.7234 main 771 764 P_____P_____P_ SH012000 -9.93505 98.6350 27 -1 -10.0495 98.9000 20 30 997 161 -9.93505 98.6350 TC 27 7 113
1999343S09095 2000 102 SI WA ILSA 1999-12-10 16:00:00 TS -10.0245 98.8389 30 997 bom main 764 758 P_____O_____P_ SH012000 -9.98670 98.7583 28 -1 -10.1000 99.0000 20 30 997 2.50000 161 3 5 -9.98670 98.7583 TC 28 8 117
1999343S09095 2000 102 SI WA ILSA 1999-12-10 18:00:00 TS -10.1436 99.0649 main 753 749 O_____P_____O_ jtwc_sh SH012000 -10.1000 99.0000 30 -1 -10.2308 99.1946 20 31 996 161 -10.1000 99.0000 TC 30 7 122
1999343S09095 2000 102 SI WA ILSA 1999-12-10 21:00:00 TS -10.3454 99.3698 main 749 745 P_____P_____P_ SH012000 -10.3000 99.3075 30 -1 -10.4364 99.4943 20 34 995 161 -10.3000 99.3075 TC 30 7 124
1999343S09095 2000 102 SI WA ILSA 1999-12-10 22:00:00 TS -10.4127 99.4703 35 995 bom main 745 733 P_____O_____P_ SH012000 -10.3691 99.4054 30 -1 -10.5000 99.6000 30 35 995 3.00000 161 3 5 -10.3691 99.4054 TC 30 7 122
1999343S09095 2000 102 SI WA ILSA 1999-12-11 00:00:00 TS -10.5360 99.6806 main 733 719 O_____P_____O_ jtwc_sh SH012000 -10.5000 99.6000 30 -1 -10.6079 99.8417 30 36 993 161 -10.5000 99.6000 TC 30 7 118
1999343S09095 2000 102 SI WA ILSA 1999-12-11 03:00:00 TS -10.6842 99.9943 main 719 710 P_____P_____P_ SH012000 -10.6500 99.8926 32 -1 -10.7526 100.198 30 39 990 161 -10.6500 99.8926 TC 32 7 116
1999343S09095 2000 102 SI WA ILSA 1999-12-11 04:00:00 TS -10.7317 100.095 40 990 bom main 710 700 P_____O_____P_ SH012000 -10.6975 99.9922 33 -1 -10.8000 100.300 30 40 990 3.00000 161 3 5 -10.6975 99.9922 TC 33 6 118
1999343S09095 2000 102 SI WA ILSA 1999-12-11 06:00:00 TS -10.8351 100.280 main 700 690 O_____P_____O_ jtwc_sh SH012000 -10.8000 100.200 35 0 -10.9053 100.441 30 43 988 161 -10.8000 100.200 TC 35 7 121
1999343S09095 2000 102 SI WA ILSA 1999-12-11 09:00:00 TS -11.0136 100.575 main 690 690 P_____P_____P_ SH012000 -10.9925 100.550 37 0 -11.0556 100.624 30 48 985 161 -10.9925 100.550 TC 37 7 121
1999343S09095 2000 102 SI WA ILSA 1999-12-11 10:00:00 TS -11.0742 100.679 50 985 bom main 690 682 P_____O_____P_ SH012000 -11.0612 100.669 38 0 -11.1000 100.700 30 50 985 3.50000 161 3 5 -11.0612 100.669 TC 38 7 119
1999343S09095 2000 102 SI WA ILSA 1999-12-11 12:00:00 TS -11.1879 100.903 main 682 668 O_____P_____O_ jtwc_sh SH012000 -11.2000 100.900 40 0 -11.1637 100.910 30 50 985 161 -11.2000 100.900 TC 40 7 117
1999343S09095 2000 102 SI WA ILSA 1999-12-11 15:00:00 TS -11.3576 101.235 main 677 670 P_____P_____P_ SH012000 -11.4075 101.215 40 0 -11.2579 101.276 30 50 985 161 -11.4075 101.215 TC 40 7 118
1999343S09095 2000 102 SI WA ILSA 1999-12-11 16:00:00 TS -11.4164 101.342 50 985 bom main 670 663 P_____O_____P_ SH012000 -11.4745 101.313 40 0 -11.3000 101.400 30 50 985 3.50000 161 3 5 -11.4745 101.313 TC 40 7 121
1999343S09095 2000 102 SI WA ILSA 1999-12-11 18:00:00 TS -11.5428 101.546 main 665 660 O_____P_____O_ jtwc_sh SH012000 -11.6000 101.500 40 0 -11.4284 101.639 30 51 983 161 -11.6000 101.500 TC 40 7 122
1999343S09095 2000 102 SI WA ILSA 1999-12-11 21:00:00 TS -11.7231 101.835 main 663 657 P_____P_____P_ SH012000 -11.7650 101.758 40 0 -11.6395 101.989 30 54 980 161 -11.7650 101.758 TC 40 7 122
1999343S09095 2000 102 SI WA ILSA 1999-12-11 22:00:00 TS -11.7755 101.926 55 980 bom main 667 655 P_____O_____P_ SH012000 -11.8133 101.839 40 0 -11.7000 102.100 30 55 980 4.00000 161 3 5 -11.8133 101.839 TC 40 6 117
1999343S09095 2000 102 SI WA ILSA 1999-12-12 00:00:00 TS -11.8590 102.104 main 664 653 O_____P_____O_ jtwc_sh SH012000 -11.9000 102.000 40 0 -11.7770 102.313 30 55 980 161 -11.9000 102.000 TC 40 6 113
1999343S09095 2000 102 SI WA ILSA 1999-12-12 03:00:00 TS -11.9604 102.379 main 658 653 P_____P_____P_ SH012000 -12.0075 102.265 42 0 -11.8662 102.608 30 55 980 161 -12.0075 102.265 TC 42 6 111
1999343S09095 2000 102 SI WA ILSA 1999-12-12 04:00:00 TS -11.9925 102.466 55 980 bom main 653 648 P_____O_____P_ SH012000 -12.0388 102.349 43 0 -11.9000 102.700 30 55 980 4.00000 161 3 5 -12.0388 102.349 TC 43 5 114
1999343S09095 2000 102 SI WA ILSA 1999-12-12 06:00:00 TS -12.0676 102.625 main 658 654 O_____P_____O_ jtwc_sh SH012000 -12.1000 102.500 45 0 -12.0029 102.875 30 53 981 161 -12.1000 102.500 TC 45 5 122
1999343S09095 2000 102 SI WA ILSA 1999-12-12 09:00:00 TS -12.1912 102.796 main 659 659 P_____P_____P_ SH012000 -12.2074 102.635 45 0 -12.1588 103.119 30 50 984 161 -12.2074 102.635 TC 45 4 126
1999343S09095 2000 102 SI WA ILSA 1999-12-12 10:00:00 TS -12.2274 102.853 50 985 bom main 655 655 P_____O_____P_ SH012000 -12.2411 102.679 45 0 -12.2000 103.200 30 50 985 3.50000 161 3 5 -12.2411 102.679 TC 45 4 116
1999343S09095 2000 102 SI WA ILSA 1999-12-12 12:00:00 TS -12.2849 102.989 main 661 645 O_____P_____O_ jtwc_sh SH012000 -12.3000 102.800 45 0 -12.2545 103.367 30 50 985 161 -12.3000 102.800 TC 45 5 105
1999343S09095 2000 102 SI WA ILSA 1999-12-12 15:00:00 TS -12.3415 103.286 main 645 639 P_____P_____P_ SH012000 -12.3650 103.120 45 0 -12.2943 103.617 30 50 985 161 -12.3650 103.120 TC 45 6 100
1999343S09095 2000 102 SI WA ILSA 1999-12-12 16:00:00 TS -12.3534 103.397 50 985 bom main 649 638 P_____O_____P_ SH012000 -12.3800 103.245 45 0 -12.3000 103.700 30 50 985 3.50000 161 3 5 -12.3800 103.245 TC 45 7 95
1999343S09095 2000 102 SI WA ILSA 1999-12-12 18:00:00 TS -12.3693 103.622 main 638 623 O_____P_____O_ jtwc_sh SH012000 -12.4000 103.500 45 0 -12.3079 103.867 30 50 985 161 -12.4000 103.500 TC 45 6 92
1999343S09095 2000 102 SI WA ILSA 1999-12-12 21:00:00 TS -12.3725 103.934 main 623 618 P_____P_____P_ SH012000 -12.4074 103.843 47 0 -12.3026 104.117 30 50 985 161 -12.4074 103.843 TC 47 6 90
1999343S09095 2000 102 SI WA ILSA 1999-12-12 22:00:00 TS -12.3702 104.039 50 985 bom main 618 609 P_____O_____P_ SH012000 -12.4054 103.959 48 0 -12.3000 104.200 30 50 985 3.50000 161 3 5 -12.4054 103.959 TC 48 6 89
1999343S09095 2000 102 SI WA ILSA 1999-12-13 00:00:00 TS -12.3666 104.252 main 605 593 O_____P_____O_ jtwc_sh SH012000 -12.4000 104.200 50 0 -12.2999 104.356 30 46 986 161 -12.4000 104.200 TC 50 7 90
1999343S09095 2000 102 SI WA ILSA 1999-12-13 03:00:00 TS -12.3666 104.597 main 593 590 P_____P_____P_ SH012000 -12.4000 104.593 52 0 -12.3000 104.605 30 41 989 161 -12.4000 104.593 TC 52 7 90
1999343S09095 2000 102 SI WA ILSA 1999-12-13 04:00:00 TS -12.3666 104.719 40 990 bom main 590 583 P_____O_____P_ SH012000 -12.4000 104.728 53 0 -12.3000 104.700 30 40 990 3.00000 161 4 5 -12.4000 104.728 TC 53 7 90
1999343S09095 2000 102 SI WA ILSA 1999-12-13 06:00:00 TS -12.3666 104.967 main 580 572 O_____P_____O_ jtwc_sh SH012000 -12.4000 105.000 55 0 -12.2999 104.901 30 40 990 161 -12.4000 105.000 TC 55 7 90
1999343S09095 2000 102 SI WA ILSA 1999-12-13 09:00:00 TS -12.3666 105.354 main 570 568 P_____P_____P_ SH012000 -12.3999 105.400 55 0 -12.2999 105.261 30 40 990 161 -12.3999 105.400 TC 55 8 90
1999343S09095 2000 102 SI WA ILSA 1999-12-13 10:00:00 TS -12.3666 105.489 40 990 bom main 568 565 P_____O_____P_ SH012000 -12.3999 105.533 55 0 -12.3000 105.400 30 40 990 3.00000 161 4 5 -12.3999 105.533 TC 55 8 90
1999343S09095 2000 102 SI WA ILSA 1999-12-13 12:00:00 TS -12.3667 105.770 main 563 554 O_____P_____O_ jtwc_sh SH012000 -12.4000 105.800 55 0 -12.3000 105.710 30 40 990 161 -12.4000 105.800 TC 55 8 91
1999343S09095 2000 102 SI WA ILSA 1999-12-13 15:00:00 TS -12.3766 106.208 main 554 551 P_____P_____P_ SH012000 -12.4149 106.200 55 0 -12.3000 106.225 30 40 990 161 -12.4149 106.200 TC 55 9 91
1999343S09095 2000 102 SI WA ILSA 1999-12-13 16:00:00 TS -12.3772 106.356 40 990 bom main 548 542 P_____O_____P_ SH012000 -12.4157 106.333 55 0 -12.3000 106.400 30 40 990 3.00000 161 3 5 -12.4157 106.333 TC 55 9 89
1999343S09095 2000 102 SI WA ILSA 1999-12-13 18:00:00 TS -12.3666 106.644 main 542 522 O_____P_____O_ jtwc_sh SH012000 -12.4000 106.600 55 0 -12.2999 106.733 30 40 990 161 -12.4000 106.600 TC 55 8 84
1999343S09095 2000 102 SI WA ILSA 1999-12-13 21:00:00 TS -12.3049 107.068 main 520 519 P_____P_____P_ SH012000 -12.3074 106.985 55 0 -12.2999 107.233 30 40 990 161 -12.3074 106.985 TC 55 8 81
1999343S09095 2000 102 SI WA ILSA 1999-12-13 22:00:00 TS -12.2797 107.212 40 990 bom main 519 502 P_____O_____P_ SH012000 -12.2695 107.118 55 0 -12.3000 107.400 30 40 990 3.00000 161 3 5 -12.2695 107.118 TC 55 9 81
1999343S09095 2000 102 SI WA ILSA 1999-12-14 00:00:00 TS -12.2333 107.509 main 502 494 O_____P_____O_ jtwc_sh SH012000 -12.2000 107.400 55 0 -12.2999 107.728 30 40 990 161 -12.2000 107.400 TC 55 9 84
1999343S09095 2000 102 SI WA ILSA 1999-12-14 03:00:00 TS -12.1950 108.009 main 494 493 P_____P_____P_ SH012000 -12.1426 107.900 55 0 -12.2999 108.228 30 40 990 161 -12.1426 107.900 TC 55 10 86
1999343S09095 2000 102 SI WA ILSA 1999-12-14 04:00:00 TS -12.1853 108.181 40 990 bom main 493 492 P_____O_____P_ SH012000 -12.1280 108.072 55 0 -12.3000 108.400 30 40 990 3.00000 161 4 5 -12.1280 108.072 TC 55 10 87
1999343S09095 2000 102 SI WA ILSA 1999-12-14 06:00:00 TS -12.1667 108.521 main 492 474 O_____P_____O_ jtwc_sh SH012000 -12.1000 108.400 55 0 -12.3000 108.764 30 40 990 161 -12.1000 108.400 TC 55 9 86
1999343S09095 2000 102 SI WA ILSA 1999-12-14 09:00:00 TS -12.1282 108.978 main 474 470 P_____P_____P_ SH012000 -12.0423 108.808 55 0 -12.3000 109.320 30 40 990 161 -12.0423 108.808 TC 55 9 85
1999343S09095 2000 102 SI WA ILSA 1999-12-14 10:00:00 TS -12.1169 109.124 40 990 bom main 470 459 P_____O_____P_ SH012000 -12.0253 108.936 55 0 -12.3000 109.500 30 40 990 3.00000 161 4 5 -12.0253 108.936 TC 55 9 86
1999343S09095 2000 102 SI WA ILSA 1999-12-14 12:00:00 TS -12.0981 109.414 main 459 447 O_____P_____O_ jtwc_sh SH012000 -12.0000 109.200 55 0 -12.2944 109.841 30 40 990 161 -12.0000 109.200 TC 55 9 88
1999343S09095 2000 102 SI WA ILSA 1999-12-14 15:00:00 TS -12.0880 109.874 main 445 443 P_____P_____P_ SH012000 -11.9850 109.643 55 0 -12.2942 110.336 30 40 990 161 -11.9850 109.643 TC 55 9 89
1999343S09095 2000 102 SI WA ILSA 1999-12-14 16:00:00 TS -12.0911 110.030 40 990 bom main 443 436 P_____O_____P_ SH012000 -11.9866 109.795 55 0 -12.3000 110.500 30 40 990 3.00000 161 3 5 -11.9866 109.795 TC 55 9 93
1999343S09095 2000 102 SI WA ILSA 1999-12-14 18:00:00 TS -12.1085 110.346 main 436 425 O_____P_____O_ jtwc_sh SH012000 -12.0000 110.100 55 0 -12.3254 110.839 30 40 990 161 -12.0000 110.100 TC 55 9 94
1999343S09095 2000 102 SI WA ILSA 1999-12-14 21:00:00 TS -12.1400 110.788 main 425 423 P_____P_____P_ SH012000 -12.0197 110.513 55 0 -12.3807 111.339 30 40 990 161 -12.0197 110.513 TC 55 9 95
1999343S09095 2000 102 SI WA ILSA 1999-12-14 22:00:00 TS -12.1582 110.940 40 990 bom main 434 429 P_____O_____P_ SH012000 -12.0373 110.661 55 0 -12.4000 111.500 30 40 990 3.00000 161 3 5 -12.0373 110.661 TC 55 9 98
1999343S09095 2000 102 SI WA ILSA 1999-12-15 00:00:00 TS -12.2092 111.266 main 427 426 O_____P_____O_ jtwc_sh SH012000 -12.1000 111.000 55 0 -12.4277 111.797 30 40 990 161 -12.1000 111.000 TC 55 11 102
1999343S09095 2000 102 SI WA ILSA 1999-12-15 03:00:00 TS -12.3444 111.875 main 437 437 P_____P_____P_ SH012000 -12.2778 111.692 57 0 -12.4775 112.241 30 40 990 161 -12.2778 111.692 TC 57 12 103
1999343S09095 2000 102 SI WA ILSA 1999-12-15 04:00:00 TS -12.4004 112.092 40 990 bom main 450 450 P_____O_____P_ SH012000 -12.3506 111.938 58 0 -12.5000 112.400 30 40 990 3.00000 161 3 5 -12.3506 111.938 TC 58 13 105
1999343S09095 2000 102 SI WA ILSA 1999-12-15 06:00:00 TS -12.5087 112.519 main 459 453 O_____P_____O_ jtwc_sh SH012000 -12.5000 112.400 60 0 -12.5262 112.757 30 40 990 161 -12.5000 112.400 TC 60 12 105
1999343S09095 2000 102 SI WA ILSA 1999-12-15 09:00:00 TS -12.6564 113.054 main 465 462 P_____P_____P_ SH012000 -12.6697 112.923 60 0 -12.6298 113.317 30 40 990 161 -12.6697 112.923 TC 60 11 107
1999343S09095 2000 102 SI WA ILSA 1999-12-15 10:00:00 TS -12.7232 113.221 40 990 bom main 462 459 P_____O_____P_ SH012000 -12.7348 113.081 60 0 -12.7000 113.500 30 40 990 3.00000 161 3 5 -12.7348 113.081 TC 60 11 117
1999343S09095 2000 102 SI WA ILSA 1999-12-15 12:00:00 TS -12.9009 113.547 main 474 472 O_____P_____O_ jtwc_sh SH012000 -12.9000 113.400 60 0 -12.9028 113.841 30 40 990 161 -12.9000 113.400 TC 60 12 124
1999343S09095 2000 102 SI WA ILSA 1999-12-15 15:00:00 TS -13.2661 114.054 main 506 506 P_____P_____P_ SH012000 -13.2322 113.913 60 0 -13.3337 114.336 30 40 991 161 -13.2322 113.913 TC 60 13 128
1999343S09095 2000 102 SI WA ILSA 1999-12-15 16:00:00 TS -13.4146 114.231 40 992 bom main 517 516 P_____O_____P_ SH012000 -13.3718 114.097 60 0 -13.5000 114.500 30 40 992 3.00000 161 3 5 -13.3718 114.097 TC 60 15 132
1999343S09095 2000 102 SI WA ILSA 1999-12-15 18:00:00 TS -13.7494 114.608 main 548 548 O_____P_____O_ jtwc_sh SH012000 -13.7000 114.500 60 0 -13.8482 114.823 30 40 992 161 -13.7000 114.500 TC 60 17 133
1999343S09095 2000 102 SI WA ILSA 1999-12-15 21:00:00 TS -14.3566 115.264 main 616 616 P_____P_____P_ SH012000 -14.3277 115.235 60 0 -14.4144 115.322 30 40 992 161 -14.3277 115.235 TC 60 18 134
1999343S09095 2000 102 SI WA ILSA 1999-12-15 22:00:00 TS -14.5703 115.496 40 992 bom main 634 633 P_____O_____P_ SH012000 -14.5555 115.494 60 0 -14.6000 115.500 30 40 992 3.00000 161 3 5 -14.5555 115.494 TC 60 18 133
1999343S09095 2000 102 SI WA ILSA 1999-12-16 00:00:00 TS -14.9752 115.952 main 630 570 O_____P_____O_ jtwc_sh SH012000 -15.0000 116.000 60 0 -14.9257 115.856 30 40 992 161 -15.0000 116.000 TC 60 17 131
1999343S09095 2000 102 SI WA ILSA 1999-12-16 03:00:00 TS -15.5114 116.604 main 570 543 P_____P_____P_ SH012000 -15.5572 116.673 55 0 -15.4197 116.465 30 40 992 161 -15.5572 116.673 TC 55 17 130
1999343S09095 2000 102 SI WA ILSA 1999-12-16 04:00:00 TS -15.6907 116.824 40 992 bom main 543 500 P_____O_____P_ SH012000 -15.7361 116.886 53 0 -15.6000 116.700 30 40 992 3.00000 161 3 5 -15.7361 116.886 TC 53 17 130
1999343S09095 2000 102 SI WA ILSA 1999-12-16 06:00:00 TS -16.0627 117.278 main 486 467 O_____P_____O_ jtwc_sh SH012000 -16.1000 117.300 50 0 -15.9881 117.235 30 40 992 161 -16.1000 117.300 TC 50 18 131
1999343S09095 2000 102 SI WA ILSA 1999-12-16 07:00:00 TS -16.2646 117.511 40 992 bom main 457 400 P_____O_____P_ SH012000 -16.2969 117.516 49 0 -16.2000 117.500 30 40 992 3.00000 161 3 5 -16.2969 117.516 TC 49 18 134
1999343S09095 2000 102 SI WA ILSA 1999-12-16 09:00:00 TS -16.6929 117.955 main 397 373 P_____P_____P_ SH012000 -16.7000 117.938 47 0 -16.6786 117.991 30 36 993 125 -16.7000 117.938 TC 47 18 136
1999343S09095 2000 102 SI WA ILSA 1999-12-16 10:00:00 TS -16.9016 118.158 35 994 bom main 370 330 P_____O_____P_ SH012000 -16.9025 118.137 46 0 -16.9000 118.200 30 35 994 3.00000 107 3 5 -16.9025 118.137 TC 46 16 138
1999343S09095 2000 102 SI WA ILSA 1999-12-16 12:00:00 TS -17.2647 118.500 main 319 269 O_____P_____O_ jtwc_sh SH012000 -17.3000 118.500 45 0 -17.1942 118.500 30 35 994 107 -17.3000 118.500 TC 45 13 140
1999343S09095 2000 102 SI WA ILSA 1999-12-16 15:00:00 TS -17.7504 118.891 main 258 246 P_____P_____P_ SH012000 -17.8797 118.938 47 0 -17.4917 118.798 30 35 994 107 -17.8797 118.938 TC 47 12 143
1999343S09095 2000 102 SI WA ILSA 1999-12-16 16:00:00 TS -17.9082 119.009 35 994 bom main 246 210 P_____O_____P_ SH012000 -18.0623 119.063 48 0 -17.6000 118.900 30 35 994 3.00000 107 3 5 -18.0623 119.063 TC 48 12 144
1999343S09095 2000 102 SI WA ILSA 1999-12-16 18:00:00 TS -18.2365 119.261 main 208 146 O_____P_____O_ jtwc_sh SH012000 -18.4000 119.300 50 0 -17.9096 119.184 30 35 994 107 -18.4000 119.300 TC 50 12 142
1999343S09095 2000 102 SI WA ILSA 1999-12-16 21:00:00 TS -18.6900 119.649 main 146 130 P_____P_____P_ SH012000 -18.8223 119.650 52 0 -18.4255 119.645 30 35 994 107 -18.8223 119.650 TC 52 12 141
1999343S09095 2000 102 SI WA ILSA 1999-12-16 22:00:00 TS -18.8330 119.776 35 994 bom main 130 91 P_____O_____P_ SH012000 -18.9495 119.765 53 0 -18.6000 119.800 30 35 994 3.00000 107 3 5 -18.9495 119.765 TC 53 11 139
1999343S09095 2000 102 SI WA ILSA 1999-12-17 00:00:00 TS -19.1210 120.041 main 91 35 O_____P_____O_ jtwc_sh SH012000 -19.2000 120.000 55 0 -18.9630 120.122 30 35 994 107 -19.2000 120.000 TC 55 12 139
1999343S09095 2000 102 SI WA ILSA 1999-12-17 03:00:00 TS -19.5547 120.443 main 24 10 P_____P_____P_ SH012000 -19.5999 120.378 45 0 -19.4645 120.573 30 35 994 107 -19.5999 120.378 TC 45 11 138
1999343S09095 2000 102 SI WA ILSA 1999-12-17 04:00:00 TS -19.6888 120.575 35 994 bom main 10 0 P_____O_____P_ SH012000 -19.7332 120.512 41 0 -19.6000 120.700 30 35 994 3.00000 107 3 4 -19.7332 120.512 TC 41 11 136
1999343S09095 2000 102 SI WA ILSA 1999-12-17 06:00:00 TS -19.9357 120.835 main 0 0 O_____P_____O_ jtwc_sh SH012000 -20.0000 120.800 35 0 -19.8070 120.905 30 35 994 107 -20.0000 120.800 TC 35 11 136
1999343S09095 2000 102 SI WA ILSA 1999-12-17 07:00:00 TS -20.0698 120.967 35 995 bom main 0 0 P_____O_____P_ SH012000 -20.1335 120.955 34 0 -19.9000 121.000 30 35 995 3.00000 107 3 4 -20.1335 120.955 TC 34 11 134
1999343S09095 2000 102 SI WA ILSA 1999-12-17 09:00:00 TS -20.3246 121.261 main 0 0 P_____P_____P_ SH012000 -20.4004 121.282 32 -1 -20.0975 121.198 30 28 995 107 -20.4004 121.282 TC 32 12 133
1999343S09095 2000 102 SI WA ILSA 1999-12-17 10:00:00 TS -20.4670 121.422 25 995 bom main 0 0 P_____O_____P_ SH012000 -20.5337 121.452 31 -1 -20.2000 121.300 20 25 995 107 3 5 -20.5337 121.452 TC 31 14 133
1999343S09095 2000 102 SI WA ILSA 1999-12-17 12:00:00 TS -20.8000 121.800 main 0 O___________O_ jtwc_sh SH012000 -20.8000 121.800 30 -1 20 -20.8000 121.800 TC 30 15 133

About IBTrACS Database

This database is a web-friendly format of International Best Track Archive for Climate Stewardship (IBTrACS), a global best track data archive curated by NOAA dating back to 1842.

Updated: 2021-10-08